Time;durP1;ratioP1;P1;durP2;ratioP2;P2;SDS_P1;SDS_P2;PMS_P1;PMS_P2;Temp;Humidity;BMP_temperature;BMP_pressure;BME280_temperature;BME280_humidity;BME280_pressure;Samples;Min_cycle;Max_cycle;Signal;HPM_P1;HPM_P2
2022/03/17 00:01:01;;;;;;;92.10;49.30;;;;;;;2.02;70.20;99689.13;105833;1280;22316;-76
2022/03/17 00:03:28;;;;;;;96.70;48.00;;;;;;;2.01;70.33;99689.95;105777;1280;137319;-76
2022/03/17 00:05:54;;;;;;;82.40;44.30;;;;;;;2.01;70.57;99690.86;105999;1280;22487;-76
2022/03/17 00:08:20;;;;;;;93.90;47.10;;;;;;;1.99;70.72;99690.27;105796;1280;22689;-75
2022/03/17 00:10:47;;;;;;;83.80;45.40;;;;;;;1.99;70.81;99693.87;105729;1280;137104;-76
2022/03/17 00:13:13;;;;;;;87.40;45.50;;;;;;;1.98;70.82;99690.95;105806;1281;22566;-76
2022/03/17 00:15:42;;;;;;;90.70;45.20;;;;;;;1.96;70.89;99693.32;105768;1281;137290;-76
2022/03/17 00:18:08;;;;;;;87.30;46.10;;;;;;;1.94;70.98;99694.95;105816;1280;22573;-76
2022/03/17 00:20:34;;;;;;;87.00;45.30;;;;;;;1.90;71.11;99696.14;105983;1280;25336;-75
2022/03/17 00:23:01;;;;;;;94.30;48.10;;;;;;;1.85;71.16;99694.67;106011;1280;137053;-76
2022/03/17 00:25:29;;;;;;;92.70;47.20;;;;;;;1.83;71.22;99698.95;105887;1280;22855;-75
2022/03/17 00:27:56;;;;;;;86.00;45.90;;;;;;;1.81;71.50;99698.80;105602;1281;138271;-75
2022/03/17 00:30:24;;;;;;;86.00;45.70;;;;;;;1.82;71.43;99703.56;105749;1280;22913;-76
2022/03/17 00:32:51;;;;;;;81.40;41.40;;;;;;;1.81;71.59;99704.05;105787;1281;137620;-76
2022/03/17 00:38:03;;;;;;;76.30;42.10;;;;;;;1.79;71.85;99706.88;105766;1281;23285;-75
2022/03/17 00:40:30;;;;;;;85.30;47.80;;;;;;;1.78;71.97;99712.95;105873;1280;137666;-75
2022/03/17 00:42:56;;;;;;;88.70;45.60;;;;;;;1.75;72.06;99708.92;105926;1280;22670;-76
2022/03/17 00:45:24;;;;;;;89.00;43.60;;;;;;;1.72;72.15;99707.97;105582;1280;137697;-76
2022/03/17 00:47:51;;;;;;;91.00;44.70;;;;;;;1.68;72.02;99706.03;105888;1278;24382;-77
2022/03/17 00:50:17;;;;;;;92.20;47.90;;;;;;;1.64;72.29;99708.21;105848;1278;22607;-76
2022/03/17 00:52:44;;;;;;;89.10;47.40;;;;;;;1.62;72.22;99712.93;105658;1278;138044;-76
2022/03/17 00:55:25;;;;;;;89.90;45.50;;;;;;;1.61;72.43;99714.63;105687;1278;25575;-75
2022/03/17 00:57:51;;;;;;;84.40;44.80;;;;;;;1.59;72.41;99720.33;105626;1279;137510;-76
2022/03/17 01:00:24;;;;;;;84.30;43.40;;;;;;;1.59;72.32;99720.92;105726;1278;24329;-76
2022/03/17 01:02:54;;;;;;;94.30;47.60;;;;;;;1.56;72.52;99722.30;105545;1280;137441;-76
2022/03/17 01:05:22;;;;;;;90.50;46.40;;;;;;;1.55;72.65;99720.13;105884;1278;23692;-76
2022/03/17 01:07:50;;;;;;;92.90;46.50;;;;;;;1.52;72.70;99720.77;105968;1277;22647;-76
2022/03/17 01:10:17;;;;;;;97.40;48.70;;;;;;;1.49;72.75;99724.40;105784;1277;137303;-75
2022/03/17 01:12:49;;;;;;;102.10;50.30;;;;;;;1.46;72.77;99726.46;105787;1278;22572;-75
2022/03/17 01:15:20;;;;;;;95.60;48.40;;;;;;;1.44;72.60;99723.29;105732;1278;138174;-75
2022/03/17 01:18:02;;;;;;;93.00;46.10;;;;;;;1.43;72.71;99723.62;105776;1280;23042;-75
2022/03/17 01:20:29;;;;;;;91.20;46.40;;;;;;;1.42;72.84;99726.63;105805;1280;25267;-75
2022/03/17 01:22:56;;;;;;;86.00;45.10;;;;;;;1.39;72.74;99726.14;105775;1278;137467;-75
2022/03/17 01:25:22;;;;;;;93.80;44.80;;;;;;;1.36;72.86;99722.69;105978;1277;22634;-76
2022/03/17 01:27:49;;;;;;;90.40;44.70;;;;;;;1.31;72.62;99732.30;105770;1280;137260;-76
2022/03/17 01:30:17;;;;;;;96.00;47.20;;;;;;;1.26;72.87;99735.00;105870;1280;24338;-76
2022/03/17 01:32:43;;;;;;;86.00;45.00;;;;;;;1.21;72.87;99737.79;105730;1280;137437;-75
2022/03/17 01:35:11;;;;;;;97.30;48.90;;;;;;;1.16;73.08;99740.58;106123;1278;22660;-76
2022/03/17 01:37:37;;;;;;;91.20;47.10;;;;;;;1.11;72.97;99745.55;105839;1278;22572;-75
2022/03/17 01:40:04;;;;;;;90.80;47.80;;;;;;;1.08;73.10;99749.09;105774;1280;138016;-75
2022/03/17 01:42:32;;;;;;;90.20;46.30;;;;;;;1.07;73.22;99755.27;105888;1278;25496;-75
2022/03/17 01:44:58;;;;;;;94.00;46.20;;;;;;;1.04;73.39;99750.19;105735;1280;137667;-75
2022/03/17 01:47:28;;;;;;;91.80;47.20;;;;;;;1.01;73.58;99748.73;105859;1280;23058;-75
2022/03/17 01:50:01;;;;;;;87.00;43.80;;;;;;;0.97;73.54;99746.59;105826;1280;25475;-75
2022/03/17 01:52:27;;;;;;;86.60;46.20;;;;;;;0.92;73.64;99744.92;105725;1281;137201;-75
2022/03/17 01:54:54;;;;;;;84.80;46.30;;;;;;;0.87;73.90;99740.05;105629;1280;24207;-75
2022/03/17 01:57:22;;;;;;;88.70;47.40;;;;;;;0.84;74.03;99744.16;105608;1281;137292;-75
2022/03/17 01:59:49;;;;;;;94.80;48.40;;;;;;;0.80;73.90;99744.33;105916;1280;24722;-75
2022/03/17 02:02:16;;;;;;;91.50;47.10;;;;;;;0.79;74.10;99744.05;105831;1280;25500;-75
2022/03/17 02:04:43;;;;;;;91.70;46.40;;;;;;;0.78;74.24;99743.40;105677;1280;137515;-75
2022/03/17 02:07:14;;;;;;;80.00;41.10;;;;;;;0.75;74.19;99741.39;105828;1280;23916;-74
2022/03/17 02:09:42;;;;;;;93.90;47.30;;;;;;;0.70;74.33;99746.33;105618;1280;137207;-75
2022/03/17 02:15:01;;;;;;;94.60;47.70;;;;;;;0.61;74.67;99749.05;105691;1280;137274;-75
2022/03/17 02:17:31;;;;;;;92.10;46.60;;;;;;;0.59;74.74;99749.61;105867;1280;22790;-75
2022/03/17 02:19:59;;;;;;;92.60;45.20;;;;;;;0.58;74.79;99756.66;105902;1280;22547;-75
2022/03/17 02:22:27;;;;;;;86.20;45.10;;;;;;;0.57;74.91;99755.67;105980;1278;137360;-75
2022/03/17 02:27:45;;;;;;;91.30;45.00;;;;;;;0.57;74.84;99754.80;105650;1279;137205;-75
2022/03/17 02:30:14;;;;;;;83.00;44.80;;;;;;;0.54;74.81;99763.26;105870;1280;22570;-75
2022/03/17 02:32:40;;;;;;;90.30;50.10;;;;;;;0.50;74.85;99760.42;105740;1277;137454;-75
2022/03/17 02:35:10;;;;;;;89.80;45.50;;;;;;;0.48;74.68;99760.26;105980;1280;23160;-75
2022/03/17 02:37:37;;;;;;;83.80;44.50;;;;;;;0.47;75.04;99762.22;105927;1278;22713;-75
2022/03/17 02:40:07;;;;;;;84.70;44.00;;;;;;;0.44;74.89;99765.80;105716;1279;137169;-75
2022/03/17 02:42:34;;;;;;;90.70;44.00;;;;;;;0.43;74.86;99767.20;105765;1279;22541;-75
2022/03/17 02:45:02;;;;;;;87.60;44.10;;;;;;;0.40;74.86;99772.84;105822;1278;137297;-75
2022/03/17 02:47:28;;;;;;;89.20;44.00;;;;;;;0.33;74.60;99772.05;105924;1280;24316;-75
2022/03/17 02:49:56;;;;;;;84.80;44.40;;;;;;;0.26;74.68;99776.91;105833;1280;25360;-75
2022/03/17 02:52:24;;;;;;;83.60;44.40;;;;;;;0.17;74.71;99784.45;105856;1278;137142;-75
2022/03/17 02:54:52;;;;;;;90.90;49.20;;;;;;;0.08;75.08;99787.67;105704;1280;22564;-75
2022/03/17 02:57:19;;;;;;;88.60;46.70;;;;;;;0.03;75.29;99790.27;105749;1278;138108;-75
2022/03/17 02:59:48;;;;;;;89.40;45.60;;;;;;;0.02;75.24;99795.04;105890;1278;25368;-75
2022/03/17 03:02:15;;;;;;;85.60;44.50;;;;;;;0.01;75.66;99799.55;106065;1278;26478;-75
2022/03/17 03:04:42;;;;;;;81.70;45.00;;;;;;;-0.01;75.51;99800.63;105760;1279;137249;-75
2022/03/17 03:07:08;;;;;;;87.90;45.70;;;;;;;-0.04;75.52;99805.76;105890;1278;22593;-75
2022/03/17 03:09:35;;;;;;;86.20;44.70;;;;;;;-0.08;75.69;99808.91;105652;1280;137372;-76
2022/03/17 03:12:02;;;;;;;89.10;43.90;;;;;;;-0.13;75.70;99816.39;105753;1278;24237;-76
2022/03/17 03:14:29;;;;;;;96.20;47.90;;;;;;;-0.17;75.74;99816.99;105817;1277;22544;-76
2022/03/17 03:16:56;;;;;;;91.30;46.10;;;;;;;-0.19;75.83;99824.97;105740;1278;137534;-76
2022/03/17 03:19:24;;;;;;;87.80;45.20;;;;;;;-0.21;76.00;99824.41;105690;1280;24466;-76
2022/03/17 03:21:51;;;;;;;84.70;43.10;;;;;;;-0.20;76.22;99824.01;105616;1277;137250;-76
2022/03/17 03:24:18;;;;;;;87.30;44.60;;;;;;;-0.20;76.34;99824.19;105873;1280;22578;-77
2022/03/17 03:26:46;;;;;;;96.80;45.10;;;;;;;-0.21;76.18;99820.52;105755;1277;137538;-77
2022/03/17 03:31:45;;;;;;;97.40;46.90;;;;;;;-0.24;76.57;99821.30;105796;1280;25385;-77
2022/03/17 03:34:12;;;;;;;92.70;44.60;;;;;;;-0.25;76.27;99818.02;105613;1280;138242;-77
2022/03/17 03:39:22;;;;;;;92.70;44.00;;;;;;;-0.27;76.63;99818.04;105696;1278;137681;-77
2022/03/17 03:41:49;;;;;;;85.40;42.60;;;;;;;-0.31;76.83;99814.27;105843;1280;24318;-77
2022/03/17 03:44:15;;;;;;;78.90;43.30;;;;;;;-0.33;76.81;99815.93;105866;1280;22706;-77
2022/03/17 03:46:42;;;;;;;86.70;42.10;;;;;;;-0.37;76.85;99820.75;105638;1280;137464;-78
2022/03/17 03:49:08;;;;;;;84.60;41.40;;;;;;;-0.41;76.93;99821.31;105888;1280;25348;-78
2022/03/17 03:51:35;;;;;;;91.10;43.40;;;;;;;-0.46;76.90;99823.70;105725;1280;137254;-78
2022/03/17 03:54:17;;;;;;;84.60;43.40;;;;;;;-0.50;77.01;99827.27;105863;1280;22579;-78
2022/03/17 03:56:57;;;;;;;84.80;42.50;;;;;;;-0.51;77.23;99831.86;105903;1279;138797;-78
2022/03/17 03:59:26;;;;;;;80.30;42.00;;;;;;;-0.52;77.21;99836.94;105725;1280;22612;-78
2022/03/17 04:01:55;;;;;;;85.10;40.90;;;;;;;-0.54;77.30;99832.82;105810;1278;25448;-78
2022/03/17 04:04:22;;;;;;;78.60;40.50;;;;;;;-0.56;77.39;99837.14;105677;1280;137353;-78
2022/03/17 04:06:50;;;;;;;78.00;41.00;;;;;;;-0.59;77.45;99834.83;105951;1280;22569;-77
2022/03/17 04:09:20;;;;;;;78.00;39.80;;;;;;;-0.61;77.45;99835.06;105622;1279;137585;-77
2022/03/17 04:11:47;;;;;;;87.10;43.30;;;;;;;-0.64;77.78;99838.55;105767;1280;22547;-76
2022/03/17 04:14:14;;;;;;;77.40;40.00;;;;;;;-0.66;77.58;99840.64;105838;1280;24244;-76
2022/03/17 04:16:55;;;;;;;80.80;42.00;;;;;;;-0.67;77.78;99845.54;105635;1281;137716;-76
2022/03/17 04:19:21;;;;;;;78.80;41.10;;;;;;;-0.68;77.60;99847.62;105752;1280;22634;-75
2022/03/17 04:21:49;;;;;;;74.50;39.60;;;;;;;-0.69;77.60;99848.09;105779;1280;137959;-75
2022/03/17 04:24:17;;;;;;;82.30;42.30;;;;;;;-0.70;77.68;99848.01;105705;1278;24274;-75
2022/03/17 04:26:44;;;;;;;80.70;41.30;;;;;;;-0.71;77.88;99851.70;105758;1279;138086;-74
2022/03/17 04:29:12;;;;;;;85.50;45.00;;;;;;;-0.74;77.78;99857.45;105943;1280;24265;-74
2022/03/17 04:31:39;;;;;;;83.70;41.90;;;;;;;-0.76;77.94;99861.41;105942;1280;22560;-74
2022/03/17 04:34:06;;;;;;;75.20;40.10;;;;;;;-0.75;77.85;99865.58;105758;1280;137911;-74
2022/03/17 04:36:33;;;;;;;82.60;42.70;;;;;;;-0.75;77.75;99870.52;105826;1279;24383;-74
2022/03/17 04:39:01;;;;;;;80.70;40.60;;;;;;;-0.76;77.69;99874.73;105680;1279;137880;-74
2022/03/17 04:41:27;;;;;;;77.50;39.50;;;;;;;-0.78;78.02;99876.35;105754;1278;22564;-73
2022/03/17 04:44:09;;;;;;;83.60;41.20;;;;;;;-0.81;77.95;99879.67;105761;1280;22655;-74
2022/03/17 04:46:36;;;;;;;78.60;42.00;;;;;;;-0.84;77.98;99879.35;105760;1278;139006;-73
2022/03/17 04:49:03;;;;;;;83.40;42.10;;;;;;;-0.86;77.87;99884.55;105713;1280;23494;-73
2022/03/17 04:51:31;;;;;;;87.20;44.90;;;;;;;-0.87;77.94;99888.20;105831;1278;137650;-73
2022/03/17 04:53:57;;;;;;;84.90;42.40;;;;;;;-0.87;78.15;99890.48;105807;1278;22560;-74
2022/03/17 04:56:24;;;;;;;83.60;41.60;;;;;;;-0.89;78.10;99894.22;105562;1279;22696;-76
2022/03/17 04:58:50;;;;;;;76.70;40.00;;;;;;;-0.89;78.29;99895.16;105842;1278;137369;-75
2022/03/17 05:01:17;;;;;;;75.80;39.20;;;;;;;-0.90;78.24;99897.73;105793;1278;22583;-76
2022/03/17 05:03:44;;;;;;;86.60;46.60;;;;;;;-0.92;78.15;99903.96;105705;1279;137602;-75
2022/03/17 05:06:12;;;;;;;79.50;41.70;;;;;;;-0.93;78.17;99902.31;105714;1280;23991;-75
2022/03/17 05:08:40;;;;;;;78.70;41.70;;;;;;;-0.93;78.28;99904.83;105989;1280;24255;-75
2022/03/17 05:11:08;;;;;;;82.00;43.10;;;;;;;-0.92;78.33;99901.70;105908;1278;137364;-76
2022/03/17 05:13:34;;;;;;;85.70;42.70;;;;;;;-0.92;78.20;99903.08;105786;1277;24316;-75
2022/03/17 05:16:00;;;;;;;84.20;44.10;;;;;;;-0.92;78.34;99899.55;105740;1277;137502;-75
2022/03/17 05:18:41;;;;;;;86.20;43.40;;;;;;;-0.94;78.35;99900.61;105543;1280;25360;-76
2022/03/17 05:21:07;;;;;;;88.00;46.70;;;;;;;-0.98;78.33;99900.70;105417;1280;138353;-76
2022/03/17 05:23:35;;;;;;;92.30;46.80;;;;;;;-1.00;78.41;99904.63;105477;1279;24229;-75
2022/03/17 05:26:01;;;;;;;80.60;42.70;;;;;;;-1.01;78.60;99907.92;105648;1278;22563;-74
2022/03/17 05:28:27;;;;;;;82.40;42.00;;;;;;;-1.02;78.46;99908.00;106008;1280;137954;-75
2022/03/17 05:30:54;;;;;;;71.40;37.40;;;;;;;-1.02;78.57;99908.90;105751;1280;22601;-74
2022/03/17 05:33:21;;;;;;;70.00;34.60;;;;;;;-1.04;78.63;99907.12;105706;1279;137583;-73
2022/03/17 05:35:48;;;;;;;72.10;36.20;;;;;;;-1.05;79.03;99911.16;105891;1278;22647;-73
2022/03/17 05:38:14;;;;;;;91.10;45.20;;;;;;;-1.06;79.12;99908.80;105869;1278;22841;-73
2022/03/17 05:40:40;;;;;;;87.40;43.80;;;;;;;-1.06;79.32;99909.80;105983;1277;138259;-73
2022/03/17 05:43:09;;;;;;;85.60;40.70;;;;;;;-1.03;79.07;99918.27;105888;1278;22550;-73
2022/03/17 05:45:37;;;;;;;82.20;42.60;;;;;;;-0.99;79.39;99916.88;105963;1278;137655;-75
2022/03/17 05:48:07;;;;;;;71.70;39.00;;;;;;;-0.94;79.56;99919.88;105714;1280;25447;-73
2022/03/17 05:50:37;;;;;;;74.70;39.60;;;;;;;-0.92;79.45;99920.34;105734;1280;23859;-73
2022/03/17 05:53:05;;;;;;;72.00;37.30;;;;;;;-0.88;79.60;99919.33;105690;1280;138361;-73
2022/03/17 05:55:31;;;;;;;68.90;37.10;;;;;;;-0.87;79.42;99921.50;106064;1278;25283;-75
2022/03/17 05:57:58;;;;;;;80.50;43.60;;;;;;;-0.86;79.39;99920.87;105939;1280;138555;-73
2022/03/17 06:00:27;;;;;;;89.90;43.60;;;;;;;-0.83;79.49;99919.73;105823;1280;29309;-74
2022/03/17 06:02:54;;;;;;;73.20;38.70;;;;;;;-0.77;79.49;99925.48;105811;1281;138332;-73
2022/03/17 06:05:21;;;;;;;76.30;35.60;;;;;;;-0.71;79.58;99928.65;105911;1279;22572;-73
2022/03/17 06:07:52;;;;;;;74.20;38.10;;;;;;;-0.66;79.42;99928.27;105922;1280;22569;-73
2022/03/17 06:10:27;;;;;;;78.20;40.60;;;;;;;-0.62;79.40;99928.06;105996;1279;140470;-73
2022/03/17 06:12:54;;;;;;;59.70;31.80;;;;;;;-0.60;79.43;99927.30;105919;1279;22733;-74
2022/03/17 06:15:23;;;;;;;78.70;41.90;;;;;;;-0.58;79.28;99922.35;105815;1280;137581;-74
2022/03/17 06:17:54;;;;;;;74.10;39.20;;;;;;;-0.54;79.36;99923.07;105928;1280;24304;-76
2022/03/17 06:20:23;;;;;;;71.00;38.60;;;;;;;-0.49;79.26;99924.96;105882;1280;25268;-73
2022/03/17 06:22:52;;;;;;;75.10;38.70;;;;;;;-0.44;79.24;99924.45;105629;1280;137456;-74
2022/03/17 06:25:21;;;;;;;74.50;39.60;;;;;;;-0.36;79.20;99923.80;105777;1280;25372;-74
2022/03/17 06:27:49;;;;;;;63.20;33.40;;;;;;;-0.30;79.12;99928.98;105860;1279;137331;-74
2022/03/17 06:30:19;;;;;;;58.40;30.40;;;;;;;-0.24;79.07;99925.59;105916;1280;23978;-74
2022/03/17 06:32:46;;;;;;;78.40;40.70;;;;;;;-0.20;78.98;99923.74;105908;1280;23932;-74
2022/03/17 06:35:17;;;;;;;78.60;40.70;;;;;;;-0.13;79.07;99923.30;105719;1279;138953;-74
2022/03/17 06:37:46;;;;;;;78.60;38.70;;;;;;;-0.06;78.97;99927.64;105736;1279;23080;-74
2022/03/17 06:40:14;;;;;;;75.80;37.80;;;;;;;0.03;78.94;99928.32;105796;1279;138253;-74
2022/03/17 06:42:41;;;;;;;63.70;33.40;;;;;;;0.10;78.79;99928.02;105869;1279;22577;-74
2022/03/17 06:45:23;;;;;;;72.40;38.30;;;;;;;0.17;78.44;99928.06;105562;1280;139545;-74
2022/03/17 06:47:50;;;;;;;72.20;35.50;;;;;;;0.23;78.24;99931.64;105888;1280;23218;-74
2022/03/17 06:50:17;;;;;;;73.20;36.80;;;;;;;0.29;78.12;99935.53;105817;1280;22762;-72
2022/03/17 06:52:44;;;;;;;77.70;41.40;;;;;;;0.33;78.14;99934.45;105616;1280;137249;-74
2022/03/17 06:55:11;;;;;;;77.30;39.60;;;;;;;0.39;78.00;99938.02;105872;1280;24231;-74
2022/03/17 06:57:38;;;;;;;79.90;38.50;;;;;;;0.49;78.02;99943.34;105649;1280;137953;-74
2022/03/17 07:00:15;;;;;;;76.50;37.60;;;;;;;0.59;78.02;99944.71;105620;1279;22681;-74
2022/03/17 07:02:42;;;;;;;67.20;36.30;;;;;;;0.70;77.73;99951.39;105932;1279;24283;-74
2022/03/17 07:05:09;;;;;;;68.40;37.70;;;;;;;0.80;77.70;99956.00;105719;1279;137107;-74
2022/03/17 07:07:36;;;;;;;69.90;37.00;;;;;;;0.89;77.47;99954.61;105924;1279;23311;-74
2022/03/17 07:10:17;;;;;;;71.50;38.10;;;;;;;0.96;77.20;99960.17;105657;1280;137385;-74
2022/03/17 07:12:44;;;;;;;72.40;36.60;;;;;;;1.02;76.78;99962.14;105702;1280;22563;-73
2022/03/17 07:15:25;;;;;;;64.80;37.10;;;;;;;1.08;76.59;99964.42;105602;1281;137592;-74
2022/03/17 07:17:51;;;;;;;75.50;38.10;;;;;;;1.14;76.18;99969.18;105699;1281;24324;-74
2022/03/17 07:20:32;;;;;;;73.00;37.10;;;;;;;1.24;76.16;99969.85;105715;1280;22568;-75
2022/03/17 07:23:13;;;;;;;69.30;36.30;;;;;;;1.35;75.97;99969.59;105762;1279;136914;-74
2022/03/17 07:25:39;;;;;;;67.60;37.10;;;;;;;1.44;75.92;99970.61;105910;1278;25536;-74
2022/03/17 07:28:05;;;;;;;68.40;35.40;;;;;;;1.53;75.38;99970.85;105651;1279;137308;-74
2022/03/17 07:30:31;;;;;;;61.10;32.30;;;;;;;1.59;75.05;99968.45;105843;1280;24366;-73
2022/03/17 07:33:01;;;;;;;67.00;37.20;;;;;;;1.67;75.09;99970.02;105796;1280;137696;-73
2022/03/17 07:35:28;;;;;;;59.80;34.50;;;;;;;1.75;74.73;99971.02;105870;1279;22852;-73
2022/03/17 07:37:58;;;;;;;69.90;38.60;;;;;;;1.83;74.58;99973.50;105790;1280;22572;-73
2022/03/17 07:40:25;;;;;;;68.90;34.20;;;;;;;1.91;74.64;99978.59;105810;1279;137196;-73
2022/03/17 07:42:52;;;;;;;64.00;35.30;;;;;;;2.00;74.20;99981.11;105803;1278;25254;-73
2022/03/17 07:45:36;;;;;;;66.40;38.00;;;;;;;2.11;73.73;99980.05;105746;1279;137688;-73
2022/03/17 07:48:32;;;;;;;70.30;34.80;;;;;;;2.22;73.17;99982.30;105574;1280;25340;-75
2022/03/17 07:51:11;;;;;;;61.90;33.50;;;;;;;2.34;72.69;99983.63;105726;1279;137646;-74
2022/03/17 07:53:39;;;;;;;57.90;32.10;;;;;;;2.46;72.78;99987.23;105780;1279;22541;-74
2022/03/17 07:56:08;;;;;;;63.10;35.40;;;;;;;2.58;72.42;99988.92;105917;1279;22680;-74
2022/03/17 07:58:37;;;;;;;61.60;33.30;;;;;;;2.71;72.09;99987.92;105730;1279;137226;-75
2022/03/17 08:01:04;;;;;;;58.00;31.30;;;;;;;2.83;71.56;99983.86;105781;1279;24381;-73
2022/03/17 08:03:32;;;;;;;57.20;32.40;;;;;;;2.95;71.29;99986.59;106510;1277;140413;-72
2022/03/17 08:05:58;;;;;;;59.90;32.60;;;;;;;3.05;70.17;99987.16;106532;1280;25408;-73
2022/03/17 08:08:25;;;;;;;57.60;31.90;;;;;;;3.13;69.97;99992.43;106437;1277;22640;-73
2022/03/17 08:10:51;;;;;;;56.60;29.40;;;;;;;3.22;69.73;99989.89;106259;1277;137367;-72
2022/03/17 08:13:18;;;;;;;52.00;30.50;;;;;;;3.33;69.14;99989.71;106001;1280;22569;-72
2022/03/17 08:15:44;;;;;;;51.00;27.70;;;;;;;3.43;68.19;99995.11;106086;1277;358912;-81
2022/03/17 08:18:11;;;;;;;51.80;28.10;;;;;;;3.52;68.17;100001.14;106651;1277;22879;-72
2022/03/17 08:20:42;;;;;;;47.90;27.50;;;;;;;3.63;67.47;100003.09;106313;1277;23906;-73
2022/03/17 08:23:09;;;;;;;52.20;27.20;;;;;;;3.70;66.30;100001.27;106430;1279;138036;-72
2022/03/17 08:25:36;;;;;;;49.80;27.80;;;;;;;3.75;66.40;100007.68;105720;1279;24298;-72
2022/03/17 08:28:03;;;;;;;51.50;28.80;;;;;;;3.82;66.14;100009.66;105771;1279;137677;-73
2022/03/17 08:30:32;;;;;;;47.10;27.00;;;;;;;3.90;65.45;100010.63;105786;1280;23911;-73
2022/03/17 08:32:59;;;;;;;44.20;26.80;;;;;;;3.97;65.21;100006.10;105686;1278;137566;-73
2022/03/17 08:35:27;;;;;;;42.80;24.90;;;;;;;4.07;65.13;100008.15;105721;1281;25489;-74
2022/03/17 08:37:57;;;;;;;41.60;23.70;;;;;;;4.16;64.80;100008.02;105714;1281;22558;-74
2022/03/17 08:40:24;;;;;;;44.30;25.70;;;;;;;4.26;64.11;100016.52;105572;1281;137944;-74
2022/03/17 08:42:50;;;;;;;50.00;27.80;;;;;;;4.33;63.38;100014.94;105756;1280;23049;-74
2022/03/17 08:50:47;;;;;;;47.50;27.50;;;;;;;4.57;62.84;100021.99;105805;1280;25366;-74
2022/03/17 08:53:14;;;;;;;49.00;28.40;;;;;;;4.65;62.74;100019.25;105734;1280;137118;-75
2022/03/17 08:55:41;;;;;;;49.00;26.20;;;;;;;4.75;62.90;100016.94;105790;1279;22578;-75
2022/03/17 08:58:08;;;;;;;45.40;25.40;;;;;;;4.84;61.93;100023.85;105561;1280;137247;-75
2022/03/17 09:00:35;;;;;;;45.20;26.80;;;;;;;4.91;61.66;100022.54;105845;1279;25258;-75
2022/03/17 09:03:03;;;;;;;43.90;24.90;;;;;;;5.00;61.27;100022.50;105648;1279;137488;-75
2022/03/17 09:05:33;;;;;;;43.70;24.40;;;;;;;5.09;61.28;100020.12;105862;1280;22544;-75
2022/03/17 09:08:00;;;;;;;47.60;25.30;;;;;;;5.19;60.73;100025.73;106005;1278;22567;-76
2022/03/17 09:10:26;;;;;;;44.80;25.80;;;;;;;5.26;60.02;100022.43;105708;1280;137918;-76
2022/03/17 09:12:57;;;;;;;42.60;24.60;;;;;;;5.34;59.64;100020.98;105739;1280;22550;-75
2022/03/17 09:15:25;;;;;;;38.40;24.70;;;;;;;5.41;59.09;100027.59;105570;1280;137757;-75
2022/03/17 09:17:51;;;;;;;36.90;23.50;;;;;;;5.49;59.36;100029.15;105857;1278;22573;-75
2022/03/17 09:20:18;;;;;;;41.70;23.80;;;;;;;5.61;58.75;100030.98;105915;1279;25434;-74
2022/03/17 09:22:45;;;;;;;42.10;23.60;;;;;;;5.72;58.37;100035.80;105876;1278;137540;-74
2022/03/17 09:25:12;;;;;;;43.20;23.30;;;;;;;5.85;58.15;100038.90;106094;1280;25682;-74
2022/03/17 09:27:38;;;;;;;39.50;23.80;;;;;;;5.95;57.29;100040.92;105712;1278;137287;-74
2022/03/17 09:30:06;;;;;;;39.20;23.90;;;;;;;6.07;57.28;100039.57;105807;1279;25322;-74
2022/03/17 09:32:32;;;;;;;40.40;25.00;;;;;;;6.19;56.75;100041.88;105837;1278;25316;-73
2022/03/17 09:34:59;;;;;;;42.00;23.30;;;;;;;6.29;56.39;100042.84;106052;1277;137486;-73
2022/03/17 09:37:28;;;;;;;41.60;23.60;;;;;;;6.41;56.35;100041.41;105973;1280;22557;-73
2022/03/17 09:39:55;;;;;;;38.50;22.80;;;;;;;6.55;55.42;100036.83;105596;1280;137393;-73
2022/03/17 09:42:22;;;;;;;38.60;22.90;;;;;;;6.65;55.35;100031.39;105760;1279;22569;-73
2022/03/17 09:44:52;;;;;;;40.70;25.10;;;;;;;6.78;55.28;100029.56;105820;1280;22590;-73
2022/03/17 09:47:21;;;;;;;39.70;22.70;;;;;;;6.89;53.96;100027.35;105650;1280;138762;-73
2022/03/17 09:49:51;;;;;;;39.90;21.70;;;;;;;6.96;53.24;100025.40;105905;1279;22721;-73
2022/03/17 09:52:20;;;;;;;38.00;23.30;;;;;;;7.02;52.17;100033.06;105835;1280;137484;-74
2022/03/17 09:54:52;;;;;;;37.20;22.70;;;;;;;7.06;52.23;100030.89;105940;1279;22572;-74
2022/03/17 09:57:19;;;;;;;42.80;23.90;;;;;;;7.12;52.19;100029.14;105730;1279;137628;-74
2022/03/17 09:59:48;;;;;;;35.30;21.80;;;;;;;7.18;51.60;100025.30;105911;1278;24277;-74
2022/03/17 10:02:16;;;;;;;31.30;19.50;;;;;;;7.28;50.87;100025.40;105951;1278;25319;-74
2022/03/17 10:04:51;;;;;;;36.70;20.10;;;;;;;7.38;49.63;100015.00;105758;1280;138212;-75
2022/03/17 10:07:22;;;;;;;30.20;19.20;;;;;;;7.46;49.50;100014.58;105818;1280;24328;-74
2022/03/17 10:09:50;;;;;;;30.70;18.80;;;;;;;7.54;48.72;100010.94;105674;1280;137322;-73
2022/03/17 10:12:20;;;;;;;27.10;16.80;;;;;;;7.62;48.93;100007.92;105871;1280;22737;-74
2022/03/17 10:14:49;;;;;;;24.30;17.10;;;;;;;7.78;49.47;100006.36;105766;1280;24276;-74
2022/03/17 10:17:38;;;;;;;26.50;16.20;;;;;;;7.91;48.57;100003.79;105872;1280;137277;-73
2022/03/17 10:20:16;;;;;;;23.10;15.50;;;;;;;8.04;47.21;100001.17;105912;1280;25267;-74
2022/03/17 10:22:43;;;;;;;27.80;15.90;;;;;;;8.11;46.40;99996.15;105753;1280;137505;-74
2022/03/17 10:25:12;;;;;;;28.60;16.10;;;;;;;8.18;46.07;99997.06;105996;1280;22577;-74
2022/03/17 10:27:45;;;;;;;22.50;14.90;;;;;;;8.27;46.23;99996.02;105831;1279;137667;-74
2022/03/17 10:30:20;;;;;;;24.40;14.80;;;;;;;8.37;45.58;99991.48;105841;1280;24231;-74
2022/03/17 10:33:00;;;;;;;22.60;13.00;;;;;;;8.43;44.83;99991.33;105647;1280;22588;-74
2022/03/17 10:35:36;;;;;;;22.00;13.60;;;;;;;8.45;44.04;99994.08;105753;1279;137082;-75
2022/03/17 10:38:10;;;;;;;25.10;13.60;;;;;;;8.50;44.05;99991.88;105860;1279;22551;-75
2022/03/17 10:40:36;;;;;;;20.80;12.20;;;;;;;8.56;44.30;99988.80;105661;1279;137296;-75
2022/03/17 10:43:23;;;;;;;19.70;11.60;;;;;;;8.65;43.72;99985.42;105742;1280;22804;-75
2022/03/17 10:46:12;;;;;;;20.60;12.60;;;;;;;8.79;42.94;99977.34;105671;1278;137588;-75
2022/03/17 10:49:02;;;;;;;25.60;13.20;;;;;;;8.88;42.66;99982.36;105924;1279;22586;-75
2022/03/17 10:51:38;;;;;;;23.20;13.10;;;;;;;8.98;43.45;99987.45;105734;1279;137555;-75
2022/03/17 10:54:18;;;;;;;19.70;12.40;;;;;;;9.08;42.88;99983.36;105885;1280;22556;-75
2022/03/17 10:57:09;;;;;;;27.50;13.40;;;;;;;9.20;42.73;99984.06;105935;1280;22860;-75
2022/03/17 10:59:42;;;;;;;18.40;12.30;;;;;;;9.29;42.57;99981.61;105762;1279;137248;-75
2022/03/17 11:02:11;;;;;;;19.80;11.90;;;;;;;9.37;41.51;99979.75;105836;1279;25307;-74
2022/03/17 11:04:41;;;;;;;19.30;13.10;;;;;;;9.41;41.51;99978.93;105828;1279;137332;-74
2022/03/17 11:07:13;;;;;;;21.30;12.50;;;;;;;9.46;40.89;99984.33;105848;1280;24436;-74
2022/03/17 11:09:42;;;;;;;19.50;13.10;;;;;;;9.50;41.19;99987.73;105948;1279;137526;-74
2022/03/17 11:12:12;;;;;;;20.00;12.00;;;;;;;9.59;41.53;99987.27;105687;1279;22577;-74
2022/03/17 11:14:50;;;;;;;17.60;10.80;;;;;;;9.65;41.17;99983.59;106874;1277;23334;-75
2022/03/17 11:17:28;;;;;;;18.80;11.80;;;;;;;9.72;40.16;99984.13;106019;1277;137776;-74
2022/03/17 11:20:02;;;;;;;18.70;12.40;;;;;;;9.78;39.63;99987.77;106463;1277;22588;-74
2022/03/17 11:22:32;;;;;;;18.80;12.20;;;;;;;9.79;39.66;99989.64;105900;1280;139413;-74
2022/03/17 11:25:34;;;;;;;20.30;11.90;;;;;;;9.80;39.94;99992.99;106174;1277;22589;-74
2022/03/17 11:28:03;;;;;;;18.60;12.00;;;;;;;9.86;39.75;99991.47;106445;1277;138214;-74
2022/03/17 11:30:51;;;;;;;18.80;11.80;;;;;;;9.92;39.36;99990.23;106323;1277;24258;-74
2022/03/17 11:33:28;;;;;;;19.10;11.20;;;;;;;10.00;39.42;99987.88;105835;1277;138466;-74
2022/03/17 11:35:59;;;;;;;20.20;12.40;;;;;;;10.07;39.24;99985.95;105980;1279;23130;-74
2022/03/17 11:38:30;;;;;;;16.90;11.60;;;;;;;10.16;39.21;99985.68;106195;1278;32097;-74